Terminal Aerodrome Forecast
Issued by NWS

Home | Current Version | Previous Version | Text Only | Print | Product List | Glossary On
Versions: 1 2 3 4 5 6 7 8 9 10 11 12 13 14 15
000
FTUS42 KFFC 300500 RRA
TAFPDK
TAF
KPDK 300550Z 3006/3106 00000KT P6SM BKN080
     FM301600 17006KT P6SM VCSH SCT035 BKN050 PROB30 3018/3024 6SM
      TSRA BKN045CB
     FM310200 00000KT P6SM BKN035=

USA.gov is the U.S. government's official web portal to all federal, state and local government web resources and services.